createdAt,value
2019-05-23T00:00:04.816Z,12.70
2019-05-23T00:02:37.269Z,12.67
2019-05-23T00:05:09.745Z,12.66
2019-05-23T00:07:40.130Z,12.68
2019-05-23T00:10:13.502Z,12.66
2019-05-23T00:12:50.159Z,12.65
2019-05-23T00:15:27.657Z,12.70
2019-05-23T00:18:01.357Z,12.68
2019-05-23T00:20:33.194Z,12.62
2019-05-23T00:23:05.244Z,12.61
2019-05-23T00:25:36.950Z,12.60
2019-05-23T00:28:09.151Z,12.52
2019-05-23T00:30:40.965Z,12.47
2019-05-23T00:33:12.706Z,12.50
2019-05-23T00:35:42.823Z,12.49
2019-05-23T00:38:14.811Z,12.51
2019-05-23T00:40:46.729Z,12.45
2019-05-23T00:43:22.370Z,12.46
2019-05-23T00:45:52.511Z,12.45
2019-05-23T00:48:24.841Z,12.45
2019-05-23T00:50:56.239Z,12.46
2019-05-23T00:53:26.309Z,12.47
2019-05-23T00:55:56.662Z,12.47
2019-05-23T00:58:26.871Z,12.44
2019-05-23T01:00:57.869Z,12.37
2019-05-23T01:03:29.839Z,12.36
2019-05-23T01:06:01.343Z,12.37
2019-05-23T01:08:32.025Z,12.40
2019-05-23T01:11:05.168Z,12.36
2019-05-23T01:13:35.944Z,12.35
2019-05-23T01:16:07.159Z,12.31
2019-05-23T01:18:38.713Z,12.31
2019-05-23T01:21:27.105Z,12.30
2019-05-23T01:23:59.245Z,12.27
2019-05-23T01:26:29.850Z,12.28
2019-05-23T01:29:00.422Z,12.34
2019-05-23T01:31:38.131Z,12.41
2019-05-23T01:34:09.949Z,12.40
2019-05-23T01:36:42.359Z,12.40
2019-05-23T01:39:12.942Z,12.37
2019-05-23T01:41:43.864Z,12.32
2019-05-23T01:44:14.524Z,12.29
2019-05-23T01:46:45.922Z,12.36
2019-05-23T01:49:19.020Z,12.33
2019-05-23T01:51:50.024Z,12.30
2019-05-23T01:54:20.698Z,12.29
2019-05-23T01:56:51.797Z,12.26
2019-05-23T01:59:23.265Z,12.20
2019-05-23T02:01:53.777Z,12.20
2019-05-23T02:04:25.237Z,12.16
2019-05-23T02:06:56.852Z,12.10
2019-05-23T02:09:27.175Z,12.05
2019-05-23T02:11:57.283Z,12.05
2019-05-23T02:14:28.683Z,12.03
2019-05-23T02:17:00.001Z,12.03
2019-05-23T02:19:30.193Z,12.01
2019-05-23T02:22:01.622Z,12.02
2019-05-23T02:24:31.885Z,12.03
2019-05-23T02:27:02.182Z,11.96
2019-05-23T02:29:32.710Z,11.96
2019-05-23T02:32:06.235Z,11.92
2019-05-23T02:34:38.021Z,11.93
2019-05-23T02:37:16.924Z,11.86
2019-05-23T02:39:54.529Z,11.83
2019-05-23T02:42:26.771Z,11.84
2019-05-23T02:44:56.939Z,11.85
2019-05-23T02:47:29.533Z,11.78
2019-05-23T02:50:00.511Z,11.78
2019-05-23T02:52:42.690Z,11.78
2019-05-23T02:55:18.917Z,11.76
2019-05-23T02:57:49.518Z,11.80
2019-05-23T03:00:29.149Z,11.83
2019-05-23T03:03:01.544Z,11.81
2019-05-23T03:05:32.718Z,11.77
2019-05-23T03:08:05.965Z,11.77
2019-05-23T03:10:51.139Z,11.78
2019-05-23T03:13:25.437Z,11.83
2019-05-23T03:15:57.765Z,11.78
2019-05-23T03:18:34.629Z,11.80
2019-05-23T03:21:06.111Z,11.84
2019-05-23T03:23:36.210Z,11.82
2019-05-23T03:26:27.153Z,11.74
2019-05-23T03:28:57.446Z,11.72
2019-05-23T03:31:32.110Z,11.77
2019-05-23T03:34:01.802Z,11.75
2019-05-23T03:36:31.876Z,11.76
2019-05-23T03:39:03.546Z,11.70
2019-05-23T03:41:34.720Z,11.73
2019-05-23T03:44:05.234Z,11.72
2019-05-23T03:46:37.862Z,11.71
2019-05-23T03:49:09.165Z,11.70
2019-05-23T03:51:41.236Z,11.69
2019-05-23T03:54:11.828Z,11.73
2019-05-23T03:56:42.306Z,11.75
2019-05-23T03:59:13.991Z,11.73
2019-05-23T04:01:48.603Z,11.74
2019-05-23T04:04:18.249Z,11.76
2019-05-23T04:06:49.526Z,11.77
2019-05-23T04:09:19.616Z,11.80
2019-05-23T04:11:49.789Z,11.80
2019-05-23T04:14:20.295Z,11.80
2019-05-23T04:16:50.729Z,11.86
2019-05-23T04:19:21.523Z,11.88
2019-05-23T04:21:51.879Z,11.90
2019-05-23T04:24:22.016Z,11.94
2019-05-23T04:26:52.501Z,11.94
2019-05-23T04:29:23.203Z,11.96
2019-05-23T04:32:07.066Z,11.98
2019-05-23T04:34:25.800Z,11.93
2019-05-23T04:36:56.190Z,12.01
2019-05-23T04:39:27.393Z,12.00
2019-05-23T04:41:57.767Z,11.99
2019-05-23T04:44:28.365Z,12.01
2019-05-23T04:46:59.251Z,12.00
2019-05-23T04:49:29.458Z,12.00
2019-05-23T04:51:59.726Z,11.96
2019-05-23T04:54:30.001Z,11.98
2019-05-23T04:57:00.470Z,11.98
2019-05-23T04:59:30.791Z,12.02
2019-05-23T05:02:01.340Z,12.08
2019-05-23T05:04:31.990Z,12.07
2019-05-23T05:07:02.364Z,12.10
2019-05-23T05:09:33.388Z,12.08
2019-05-23T05:12:03.958Z,12.16
2019-05-23T05:14:34.365Z,12.22
2019-05-23T05:17:05.150Z,12.18
2019-05-23T05:19:35.540Z,12.12
2019-05-23T05:22:06.027Z,12.16
2019-05-23T05:24:39.955Z,12.19
2019-05-23T05:27:09.514Z,12.24
2019-05-23T05:29:39.623Z,12.23
2019-05-23T05:32:10.187Z,12.16
2019-05-23T05:34:40.285Z,12.17
2019-05-23T05:37:10.373Z,12.21
2019-05-23T05:39:40.767Z,12.19
2019-05-23T05:42:11.841Z,12.14
2019-05-23T05:44:42.542Z,12.17
2019-05-23T05:47:13.300Z,12.14
2019-05-23T05:49:43.769Z,12.15
2019-05-23T05:52:13.943Z,12.17
2019-05-23T05:54:44.033Z,12.24
2019-05-23T05:57:14.097Z,12.28
2019-05-23T05:59:44.299Z,12.35
2019-05-23T06:02:16.048Z,12.29
2019-05-23T06:04:46.643Z,12.24
2019-05-23T06:07:18.295Z,12.24
2019-05-23T06:09:49.966Z,12.27
2019-05-23T06:12:20.034Z,12.33
2019-05-23T06:14:50.156Z,12.38
2019-05-23T06:17:34.439Z,12.37
2019-05-23T06:20:20.081Z,12.38
2019-05-23T06:22:57.308Z,12.40
2019-05-23T06:32:09.256Z,12.33
2019-05-23T06:35:17.864Z,12.30
2019-05-23T06:41:25.718Z,12.27
2019-05-23T06:50:14.604Z,12.26
2019-05-23T06:56:33.176Z,12.37
2019-05-23T21:11:25.705Z,14.22
2019-05-23T21:13:55.975Z,14.31
2019-05-23T21:16:26.023Z,14.28
2019-05-23T21:18:56.203Z,14.28
2019-05-23T21:21:26.448Z,14.28
2019-05-23T21:23:57.255Z,14.25
2019-05-23T21:26:27.342Z,14.26
2019-05-23T21:28:57.528Z,14.26
2019-05-23T21:31:27.570Z,14.26
2019-05-23T21:33:57.756Z,14.21
2019-05-23T21:36:27.844Z,14.16
2019-05-23T21:38:57.926Z,14.13
2019-05-23T21:41:28.132Z,14.03
2019-05-23T21:43:58.877Z,14.05
2019-05-23T21:46:28.931Z,14.03
2019-05-23T21:48:59.019Z,14.00
2019-05-23T21:51:29.068Z,13.91
2019-05-23T21:53:59.362Z,13.82
2019-05-23T21:56:29.508Z,13.78
2019-05-23T21:58:59.594Z,13.71
2019-05-23T22:01:31.207Z,13.58
2019-05-23T22:04:19.362Z,13.49
2019-05-23T22:06:55.250Z,13.47
2019-05-23T22:09:22.921Z,13.41
2019-05-23T22:11:53.978Z,13.21
2019-05-23T22:14:24.067Z,13.21
2019-05-23T22:16:54.166Z,13.04
2019-05-23T22:19:24.356Z,12.96
2019-05-23T22:21:54.416Z,12.97
2019-05-23T22:24:24.499Z,12.93
2019-05-23T22:26:54.550Z,12.85
2019-05-23T22:29:25.079Z,12.80
2019-05-23T22:31:56.517Z,12.80
2019-05-23T22:34:31.256Z,12.77
2019-05-23T22:37:01.735Z,12.73
2019-05-23T22:39:31.859Z,12.64
2019-05-23T22:42:01.888Z,12.59
2019-05-23T22:44:31.991Z,12.60
2019-05-23T22:47:02.055Z,12.57
2019-05-23T22:49:32.136Z,12.51
2019-05-23T22:52:02.275Z,12.43
2019-05-23T22:54:32.361Z,12.39
2019-05-23T22:57:02.445Z,12.31
2019-05-23T22:59:32.811Z,12.28
2019-05-23T23:02:04.096Z,12.22
2019-05-23T23:04:34.176Z,12.13
2019-05-23T23:07:04.284Z,12.11
2019-05-23T23:09:34.365Z,12.09
2019-05-23T23:12:04.540Z,12.03
2019-05-23T23:14:34.729Z,12.07
2019-05-23T23:17:04.904Z,12.00
2019-05-23T23:19:35.020Z,12.02
2019-05-23T23:22:06.797Z,11.92
2019-05-23T23:24:36.976Z,11.91
2019-05-23T23:27:07.147Z,11.87
2019-05-23T23:29:37.527Z,11.83
2019-05-23T23:32:07.809Z,11.74
2019-05-23T23:34:37.923Z,11.69
2019-05-23T23:37:08.094Z,11.70
2019-05-23T23:39:38.203Z,11.70
2019-05-23T23:42:08.977Z,11.64
2019-05-23T23:44:38.246Z,11.54
2019-05-23T23:47:26.255Z,11.44
2019-05-23T23:50:14.476Z,11.40
2019-05-23T23:53:02.647Z,11.30
2019-05-23T23:55:50.468Z,11.21
2019-05-23T23:58:19.721Z,11.18
